Time;durP1;ratioP1;P1;durP2;ratioP2;P2;SDS_P1;SDS_P2;PMS_P1;PMS_P2;Temp;Humidity;BMP_temperature;BMP_pressure;BME280_temperature;BME280_humidity;BME280_pressure;Samples;Min_cycle;Max_cycle;Signal;HPM_P1;HPM_P2
2022/06/25 00:02:09;;;;;;;4.70;4.40;;;;;;;25.32;44.44;94918.13;6126425;28;103668;-49
2022/06/25 00:05:32;;;;;;;5.10;4.60;;;;;;;25.33;44.31;94917.03;6138165;28;103772;-49
2022/06/25 00:08:37;;;;;;;5.10;4.80;;;;;;;25.32;44.60;94915.47;6136067;28;103737;-48
2022/06/25 00:15:01;;;;;;;4.70;4.40;;;;;;;25.29;44.91;94897.38;6109416;28;105833;-49
2022/06/25 00:18:06;;;;;;;5.20;4.70;;;;;;;25.26;45.08;94892.69;6137464;28;104657;-48
2022/06/25 00:21:09;;;;;;;5.00;4.70;;;;;;;25.25;44.77;94888.44;6137613;28;103904;-48
2022/06/25 00:24:12;;;;;;;4.67;4.27;;;;;;;25.28;44.73;94885.09;6125446;28;103973;-48
2022/06/25 00:27:15;;;;;;;6.60;4.30;;;;;;;25.26;44.75;94874.72;6135243;28;103700;-48
2022/06/25 00:30:18;;;;;;;4.53;4.10;;;;;;;25.27;44.70;94878.19;6136425;28;104573;-50
2022/06/25 00:33:23;;;;;;;5.17;4.50;;;;;;;25.23;44.47;94870.03;6136546;28;103981;-50
2022/06/25 00:36:26;;;;;;;4.83;4.27;;;;;;;25.25;44.64;94872.38;6127535;28;105025;-48
2022/06/25 00:39:29;;;;;;;4.43;4.03;;;;;;;25.23;44.22;94866.56;6135163;28;103478;-49
2022/06/25 00:42:33;;;;;;;4.87;4.47;;;;;;;25.24;43.99;94870.81;6136555;28;103834;-49
2022/06/25 00:45:36;;;;;;;6.33;4.40;;;;;;;25.22;44.33;94859.63;6135622;28;104036;-49
2022/06/25 00:48:40;;;;;;;4.63;4.23;;;;;;;25.21;44.50;94868.78;6117917;28;103745;-49
2022/06/25 00:51:48;;;;;;;4.60;4.20;;;;;;;25.22;44.34;94856.97;6129263;28;105132;-49
2022/06/25 00:54:54;;;;;;;4.23;3.93;;;;;;;25.22;44.54;94848.94;6136142;28;103924;-48
2022/06/25 00:58:00;;;;;;;4.97;4.47;;;;;;;25.20;44.50;94867.19;6130735;28;103768;-49
2022/06/25 01:01:04;;;;;;;4.90;4.47;;;;;;;25.19;44.47;94861.06;6131554;28;106216;-49
2022/06/25 01:04:08;;;;;;;4.30;4.00;;;;;;;25.20;44.25;94864.53;6136342;28;103996;-50
2022/06/25 01:07:12;;;;;;;5.10;4.70;;;;;;;25.15;44.68;94862.06;6137048;28;104976;-48
2022/06/25 01:10:15;;;;;;;4.80;4.50;;;;;;;25.18;44.69;94864.84;6125438;28;103884;-48
2022/06/25 01:13:21;;;;;;;4.53;4.23;;;;;;;25.19;44.16;94865.63;6136054;28;103712;-49
2022/06/25 01:16:24;;;;;;;4.90;4.50;;;;;;;25.22;44.60;94873.81;6135771;28;103536;-49
2022/06/25 01:19:29;;;;;;;5.23;4.50;;;;;;;25.19;44.48;94879.03;6134571;28;104112;-48
2022/06/25 01:22:33;;;;;;;4.77;4.47;;;;;;;25.13;44.57;94875.78;6123569;28;104566;-49
2022/06/25 01:25:38;;;;;;;5.87;4.90;;;;;;;25.16;44.43;94883.16;6134010;28;103914;-49
2022/06/25 01:28:41;;;;;;;4.67;4.27;;;;;;;25.14;44.14;94884.59;6133573;28;104000;-52
2022/06/25 01:31:44;;;;;;;4.23;3.93;;;;;;;25.17;44.34;94879.34;6118879;28;104096;-53
2022/06/25 01:34:47;;;;;;;4.80;4.50;;;;;;;25.26;43.78;94890.00;6126860;28;105303;-54
2022/06/25 01:37:52;;;;;;;4.10;3.90;;;;;;;25.29;43.79;94883.97;6134058;28;104028;-64
2022/06/25 01:40:55;;;;;;;5.10;4.70;;;;;;;25.21;44.16;94879.50;6133922;28;104949;-55
2022/06/25 01:43:58;;;;;;;4.97;4.57;;;;;;;25.22;44.15;94876.50;6114714;28;103734;-55
2022/06/25 01:47:01;;;;;;;4.90;4.60;;;;;;;25.23;44.14;94877.28;6126595;28;103649;-55
2022/06/25 01:50:06;;;;;;;4.93;4.53;;;;;;;25.24;43.80;94871.59;6132320;28;105347;-54
2022/06/25 01:53:11;;;;;;;5.30;4.80;;;;;;;25.13;44.33;94875.00;6131799;28;104984;-54
2022/06/25 01:56:14;;;;;;;4.90;4.60;;;;;;;25.07;44.36;94885.91;6122756;28;103617;-55
2022/06/25 01:59:17;;;;;;;7.63;5.17;;;;;;;25.12;44.24;94892.19;6133935;28;103939;-54
2022/06/25 02:02:20;;;;;;;5.03;4.63;;;;;;;25.18;44.24;94891.63;6132440;28;104531;-55
2022/06/25 02:08:44;;;;;;;4.80;4.50;;;;;;;25.22;44.50;94897.13;6128367;28;103550;-55
2022/06/25 02:11:47;;;;;;;5.07;4.67;;;;;;;25.22;44.51;94894.47;6132948;28;103966;-56
2022/06/25 02:14:50;;;;;;;4.90;4.50;;;;;;;25.21;44.31;94901.72;6133065;28;103822;-54
2022/06/25 02:17:53;;;;;;;4.90;4.60;;;;;;;25.26;44.17;94906.06;6124094;28;103883;-56
2022/06/25 02:20:56;;;;;;;4.40;4.00;;;;;;;25.27;43.99;94905.75;6132538;28;105127;-54
2022/06/25 02:24:01;;;;;;;4.80;4.03;;;;;;;25.26;43.73;94903.41;6132852;28;103978;-54
2022/06/25 02:27:04;;;;;;;4.90;4.47;;;;;;;25.16;43.93;94895.75;6132937;28;103856;-56
2022/06/25 02:30:09;;;;;;;4.53;4.23;;;;;;;25.14;43.59;94887.28;6120830;28;103963;-54
2022/06/25 02:33:13;;;;;;;4.20;3.80;;;;;;;25.20;43.63;94893.97;6132954;28;104314;-55
2022/06/25 02:36:17;;;;;;;3.70;3.50;;;;;;;25.24;43.91;94905.63;6132586;28;103719;-55
2022/06/25 02:39:21;;;;;;;4.10;3.80;;;;;;;25.27;43.51;94904.97;6132645;28;103672;-55
2022/06/25 02:42:24;;;;;;;4.40;4.10;;;;;;;25.26;43.92;94908.75;6121103;28;103787;-55
2022/06/25 02:45:28;;;;;;;4.33;4.03;;;;;;;25.28;43.49;94909.97;6132319;28;103999;-55
2022/06/25 02:48:32;;;;;;;4.43;4.10;;;;;;;25.29;43.61;94929.53;6133020;28;103978;-54
2022/06/25 02:51:35;;;;;;;4.47;4.17;;;;;;;25.28;43.68;94933.31;6124104;28;103899;-54
2022/06/25 02:54:41;;;;;;;4.47;4.17;;;;;;;25.23;43.66;94925.47;6122487;28;104522;-54
2022/06/25 03:01:04;;;;;;;4.67;4.37;;;;;;;25.13;43.40;94907.13;6132977;28;103893;-55
2022/06/25 03:04:07;;;;;;;4.67;4.30;;;;;;;25.22;43.39;94926.59;6125604;28;103924;-55
2022/06/25 03:07:11;;;;;;;4.17;3.80;;;;;;;25.21;43.65;94923.13;6136699;28;104777;-54
2022/06/25 03:10:15;;;;;;;4.73;4.43;;;;;;;25.20;43.46;94920.75;6137200;28;104157;-55
2022/06/25 03:13:18;;;;;;;4.73;4.33;;;;;;;25.22;43.37;94919.34;6137014;28;104682;-55
2022/06/25 03:16:21;;;;;;;4.20;3.80;;;;;;;25.05;43.91;94906.88;6125956;28;105309;-55
2022/06/25 03:19:25;;;;;;;4.50;4.10;;;;;;;25.11;43.41;94917.38;6137626;28;105084;-55
2022/06/25 03:22:28;;;;;;;6.60;4.00;;;;;;;25.19;43.37;94919.97;6135936;28;103967;-54
2022/06/25 03:25:32;;;;;;;5.80;3.90;;;;;;;25.23;43.49;94917.44;6130856;28;104018;-54
2022/06/25 03:28:36;;;;;;;4.50;4.20;;;;;;;25.25;43.50;94917.91;6123393;28;104610;-55
2022/06/25 03:31:39;;;;;;;4.77;4.37;;;;;;;25.27;43.40;94921.03;6135941;28;103727;-54
2022/06/25 03:34:43;;;;;;;5.43;5.00;;;;;;;25.23;43.35;94914.78;6135617;28;104793;-54
2022/06/25 03:37:46;;;;;;;5.00;4.60;;;;;;;25.24;43.51;94911.75;6117725;28;103894;-54
2022/06/25 03:41:32;;;;;;;4.63;4.33;;;;;;;25.26;43.43;94904.19;6112406;28;103824;-55
2022/06/25 03:44:13;;;;;;;5.10;4.60;;;;;;;25.25;43.78;94897.25;6129356;28;103854;-55
2022/06/25 03:47:16;;;;;;;5.30;4.80;;;;;;;25.25;43.50;94905.28;6136159;28;103670;-55
2022/06/25 03:50:21;;;;;;;4.60;4.30;;;;;;;25.27;43.53;94905.75;6125155;28;104786;-55
2022/06/25 03:53:24;;;;;;;4.70;4.30;;;;;;;25.26;43.75;94906.84;6135984;28;103858;-57
2022/06/25 03:56:29;;;;;;;5.00;4.10;;;;;;;25.22;43.53;94903.28;6124913;28;104022;-55
2022/06/25 03:59:32;;;;;;;5.40;4.37;;;;;;;25.21;43.55;94904.38;6130619;28;103716;-56
2022/06/25 04:02:35;;;;;;;4.57;4.27;;;;;;;25.24;43.84;94906.41;6132155;28;106248;-55
2022/06/25 04:05:38;;;;;;;4.20;3.90;;;;;;;25.23;43.66;94904.84;6135415;28;104930;-55
2022/06/25 04:08:42;;;;;;;4.47;4.17;;;;;;;25.15;43.78;94899.53;6131600;28;103988;-55
2022/06/25 04:11:47;;;;;;;4.70;4.30;;;;;;;24.99;44.25;94888.66;6125183;28;103691;-55
2022/06/25 04:14:50;;;;;;;5.17;4.87;;;;;;;24.99;44.32;94894.78;6130374;28;104314;-55
2022/06/25 04:17:53;;;;;;;5.00;4.70;;;;;;;25.04;44.41;94910.69;6135408;28;103878;-56
2022/06/25 04:20:56;;;;;;;5.00;4.60;;;;;;;24.87;44.94;94907.34;6134016;28;103976;-54
2022/06/25 04:24:00;;;;;;;5.23;4.70;;;;;;;24.93;44.97;94922.88;6125006;28;104030;-55
2022/06/25 04:27:07;;;;;;;5.60;4.67;;;;;;;25.00;44.80;94925.81;6135131;28;103939;-57
2022/06/25 04:30:09;;;;;;;5.73;5.27;;;;;;;25.04;44.62;94920.59;6135602;28;105043;-56
2022/06/25 04:33:13;;;;;;;5.00;4.60;;;;;;;25.05;45.06;94922.16;6130114;28;103958;-54
2022/06/25 04:36:16;;;;;;;6.50;5.20;;;;;;;25.08;45.02;94933.00;6128023;28;104377;-54
2022/06/25 04:39:19;;;;;;;4.77;4.33;;;;;;;25.08;44.98;94924.19;6131655;28;103947;-55
2022/06/25 04:42:23;;;;;;;8.33;5.50;;;;;;;25.08;45.59;94919.63;6134658;28;103773;-55
2022/06/25 04:45:26;;;;;;;5.70;5.30;;;;;;;24.96;45.66;94910.72;6125371;28;105099;-55
2022/06/25 04:48:30;;;;;;;5.63;5.13;;;;;;;24.99;45.62;94931.50;6135042;28;104866;-55
2022/06/25 04:51:33;;;;;;;5.30;4.80;;;;;;;25.04;45.63;94934.78;6134842;28;104271;-55
2022/06/25 04:54:36;;;;;;;5.60;5.17;;;;;;;25.13;45.08;94931.22;6134659;28;103999;-55
2022/06/25 04:57:41;;;;;;;5.77;5.40;;;;;;;25.16;45.44;94930.56;6115459;28;103706;-54
2022/06/25 05:00:44;;;;;;;6.00;5.50;;;;;;;25.05;46.23;94930.19;6134112;28;103994;-55
2022/06/25 05:03:48;;;;;;;7.50;6.17;;;;;;;25.05;46.32;94927.53;6133351;28;103723;-55
2022/06/25 05:06:51;;;;;;;8.47;6.53;;;;;;;25.06;46.81;94927.19;6131727;28;104889;-55
2022/06/25 05:09:54;;;;;;;5.97;5.40;;;;;;;25.08;46.82;94940.25;6123098;28;104054;-55
2022/06/25 05:16:36;;;;;;;10.60;9.60;;;;;;;25.32;47.83;94945.72;6087541;28;104331;-51
